JAL745 RJAA-RPLL
Flight info
| Callsign | JAL745 |
|---|---|
| Flight time | N/A |
| Altitude | 34000 |
| Route | SAMUS T844 BUBDO A590 DOVAG/N0498F360 A590 MUPOB Z153 POLIO POLIO3R |
| Aircraft | B77W/H-SDE1E2E3FGHIJ2J3J4J5M1RWXY/LB1D1 |
Departure
| Time | N/A |
|---|---|
| Airport | Narita International Airport (RJAA) |
Arrival
| Time | 2026-05-03 21:09 |
|---|---|
| Airport | Ninoy Aquino International Airport (RPLL) |
| Time | Latitude | Longitude | Altitude | Speed | Heading |
|---|---|---|---|---|---|
| 2026-05-03 20:15 | 17.10593 | 124.21591 | 35931 ft | 496 kts | 219° |
| 2026-05-03 20:15 | 17.05114 | 124.17220 | 35932 ft | 497 kts | 219° |
| 2026-05-03 20:16 | 16.99575 | 124.12807 | 35932 ft | 498 kts | 219° |
| 2026-05-03 20:16 | 16.94050 | 124.08406 | 35919 ft | 497 kts | 219° |
| 2026-05-03 20:17 | 16.88514 | 124.04000 | 35915 ft | 498 kts | 219° |
| 2026-05-03 20:17 | 16.82978 | 123.99599 | 35909 ft | 498 kts | 219° |
| 2026-05-03 20:18 | 16.77419 | 123.95181 | 35909 ft | 497 kts | 219° |
| 2026-05-03 20:18 | 16.71894 | 123.90794 | 35907 ft | 497 kts | 219° |
| 2026-05-03 20:19 | 16.66401 | 123.86436 | 35905 ft | 498 kts | 219° |
| 2026-05-03 20:19 | 16.60868 | 123.82049 | 35908 ft | 498 kts | 219° |
| 2026-05-03 20:20 | 16.55307 | 123.77644 | 35907 ft | 498 kts | 219° |
| 2026-05-03 20:20 | 16.49761 | 123.73253 | 35910 ft | 498 kts | 219° |
| 2026-05-03 20:21 | 16.38160 | 123.64078 | 35913 ft | 499 kts | 219° |
| 2026-05-03 20:22 | 16.32626 | 123.59708 | 35910 ft | 498 kts | 219° |
| 2026-05-03 20:22 | 16.27072 | 123.55325 | 35913 ft | 498 kts | 219° |
| 2026-05-03 20:23 | 16.21489 | 123.50921 | 35912 ft | 498 kts | 219° |
| 2026-05-03 20:23 | 16.15957 | 123.46561 | 35919 ft | 499 kts | 219° |
| 2026-05-03 20:24 | 16.10353 | 123.42147 | 35925 ft | 499 kts | 219° |
| 2026-05-03 20:24 | 16.04786 | 123.37766 | 35927 ft | 499 kts | 219° |
| 2026-05-03 20:25 | 15.99254 | 123.33416 | 35934 ft | 499 kts | 219° |
| 2026-05-03 20:25 | 15.93671 | 123.29028 | 35930 ft | 499 kts | 219° |
| 2026-05-03 20:26 | 15.88159 | 123.24699 | 35931 ft | 499 kts | 219° |
| 2026-05-03 20:26 | 15.82592 | 123.20331 | 35929 ft | 498 kts | 219° |
| 2026-05-03 20:27 | 15.77032 | 123.15971 | 35928 ft | 498 kts | 219° |
| 2026-05-03 20:27 | 15.71460 | 123.11603 | 35925 ft | 499 kts | 219° |
| 2026-05-03 20:28 | 15.65917 | 123.07150 | 35921 ft | 496 kts | 224° |
| 2026-05-03 20:28 | 15.63634 | 123.04687 | 35918 ft | 484 kts | 232° |
| 2026-05-03 20:28 | 15.61684 | 123.01836 | 35920 ft | 475 kts | 240° |
| 2026-05-03 20:29 | 15.58354 | 122.95828 | 35896 ft | 472 kts | 242° |
| 2026-05-03 20:29 | 15.56755 | 122.92909 | 35329 ft | 469 kts | 242° |
| 2026-05-03 20:29 | 15.55115 | 122.89919 | 34274 ft | 474 kts | 242° |
| 2026-05-03 20:29 | 15.53476 | 122.86930 | 33432 ft | 474 kts | 242° |
| 2026-05-03 20:30 | 15.51870 | 122.84005 | 32653 ft | 473 kts | 242° |
| 2026-05-03 20:30 | 15.50204 | 122.80972 | 31858 ft | 474 kts | 242° |
| 2026-05-03 20:30 | 15.48561 | 122.77983 | 31030 ft | 480 kts | 242° |
| 2026-05-03 20:30 | 15.46881 | 122.74926 | 30340 ft | 490 kts | 242° |
| 2026-05-03 20:31 | 15.45178 | 122.71828 | 29868 ft | 491 kts | 242° |
| 2026-05-03 20:31 | 15.43462 | 122.68710 | 29336 ft | 490 kts | 242° |
| 2026-05-03 20:31 | 15.41760 | 122.65620 | 28779 ft | 487 kts | 242° |
| 2026-05-03 20:31 | 15.40064 | 122.62541 | 28217 ft | 483 kts | 242° |
| 2026-05-03 20:32 | 15.38390 | 122.59505 | 27661 ft | 479 kts | 241° |
| 2026-05-03 20:32 | 15.36743 | 122.56516 | 27099 ft | 474 kts | 241° |
| 2026-05-03 20:32 | 15.35094 | 122.53526 | 26526 ft | 470 kts | 241° |
| 2026-05-03 20:32 | 15.33456 | 122.50557 | 25957 ft | 466 kts | 241° |
| 2026-05-03 20:33 | 15.31852 | 122.47650 | 25390 ft | 462 kts | 240° |
| 2026-05-03 20:33 | 15.30231 | 122.44714 | 24817 ft | 458 kts | 240° |
| 2026-05-03 20:33 | 15.28655 | 122.41860 | 24252 ft | 454 kts | 240° |
| 2026-05-03 20:33 | 15.27072 | 122.38995 | 23677 ft | 451 kts | 240° |
| 2026-05-03 20:34 | 15.25531 | 122.36204 | 23128 ft | 447 kts | 240° |
| 2026-05-03 20:34 | 15.23994 | 122.33426 | 22567 ft | 444 kts | 239° |
| 2026-05-03 20:34 | 15.22460 | 122.30653 | 22004 ft | 441 kts | 239° |
| 2026-05-03 20:34 | 15.20927 | 122.27882 | 21440 ft | 438 kts | 239° |
| 2026-05-03 20:35 | 15.19386 | 122.25101 | 20861 ft | 435 kts | 239° |
| 2026-05-03 20:35 | 15.17887 | 122.22393 | 20296 ft | 433 kts | 239° |
| 2026-05-03 20:35 | 15.16374 | 122.19662 | 19778 ft | 428 kts | 239° |
| 2026-05-03 20:35 | 15.14911 | 122.17022 | 19709 ft | 412 kts | 239° |
| 2026-05-03 20:36 | 15.13476 | 122.14433 | 19711 ft | 422 kts | 239° |
| 2026-05-03 20:36 | 15.11973 | 122.11725 | 19716 ft | 430 kts | 239° |
| 2026-05-03 20:36 | 15.10482 | 122.09037 | 19715 ft | 431 kts | 239° |
| 2026-05-03 20:36 | 15.08977 | 122.06325 | 19712 ft | 429 kts | 239° |
| 2026-05-03 20:37 | 15.07468 | 122.03606 | 19710 ft | 430 kts | 239° |
| 2026-05-03 20:37 | 15.05962 | 122.00895 | 19709 ft | 430 kts | 239° |
| 2026-05-03 20:37 | 15.04469 | 121.98207 | 19709 ft | 429 kts | 239° |
| 2026-05-03 20:37 | 15.02993 | 121.95510 | 19703 ft | 429 kts | 242° |
| 2026-05-03 20:38 | 15.01778 | 121.92640 | 19702 ft | 431 kts | 250° |
| 2026-05-03 20:38 | 15.00954 | 121.89653 | 19691 ft | 432 kts | 257° |
| 2026-05-03 20:38 | 15.00522 | 121.86541 | 19682 ft | 434 kts | 265° |
| 2026-05-03 20:38 | 15.00341 | 121.83427 | 19689 ft | 436 kts | 266° |
| 2026-05-03 20:39 | 15.00176 | 121.80276 | 19687 ft | 435 kts | 266° |
| 2026-05-03 20:39 | 15.00009 | 121.77124 | 19682 ft | 435 kts | 266° |
| 2026-05-03 20:39 | 14.99838 | 121.73962 | 19687 ft | 434 kts | 266° |
| 2026-05-03 20:39 | 14.99670 | 121.70866 | 19690 ft | 434 kts | 266° |
| 2026-05-03 20:40 | 14.99496 | 121.67711 | 19693 ft | 435 kts | 266° |
| 2026-05-03 20:40 | 14.99321 | 121.64558 | 19696 ft | 434 kts | 266° |
| 2026-05-03 20:40 | 14.99145 | 121.61407 | 19699 ft | 435 kts | 266° |
| 2026-05-03 20:40 | 14.98968 | 121.58247 | 19697 ft | 434 kts | 266° |
| 2026-05-03 20:41 | 14.98792 | 121.55110 | 19697 ft | 435 kts | 266° |
| 2026-05-03 20:41 | 14.98616 | 121.51995 | 19696 ft | 435 kts | 266° |
| 2026-05-03 20:41 | 14.98437 | 121.48846 | 19696 ft | 434 kts | 266° |
| 2026-05-03 20:41 | 14.98259 | 121.45714 | 19697 ft | 434 kts | 266° |
| 2026-05-03 20:42 | 14.98080 | 121.42572 | 19699 ft | 434 kts | 266° |
| 2026-05-03 20:42 | 14.97900 | 121.39426 | 19701 ft | 435 kts | 266° |
| 2026-05-03 20:42 | 14.97719 | 121.36277 | 19703 ft | 436 kts | 266° |
| 2026-05-03 20:42 | 14.97537 | 121.33112 | 19696 ft | 436 kts | 266° |
| 2026-05-03 20:43 | 14.97357 | 121.29989 | 19462 ft | 437 kts | 266° |
| 2026-05-03 20:43 | 14.97177 | 121.26854 | 19061 ft | 434 kts | 266° |
| 2026-05-03 20:43 | 14.96996 | 121.23717 | 18655 ft | 430 kts | 266° |
| 2026-05-03 20:43 | 14.96820 | 121.20651 | 18258 ft | 426 kts | 266° |
| 2026-05-03 20:44 | 14.96643 | 121.17577 | 17858 ft | 425 kts | 266° |
| 2026-05-03 20:44 | 14.96470 | 121.14547 | 17470 ft | 425 kts | 266° |
| 2026-05-03 20:44 | 14.96293 | 121.11468 | 17081 ft | 422 kts | 266° |
| 2026-05-03 20:44 | 14.96120 | 121.08450 | 16697 ft | 419 kts | 266° |
| 2026-05-03 20:45 | 14.95947 | 121.05436 | 16311 ft | 416 kts | 266° |
| 2026-05-03 20:45 | 14.95777 | 121.02457 | 15941 ft | 415 kts | 266° |
| 2026-05-03 20:45 | 14.95607 | 120.99489 | 15568 ft | 413 kts | 266° |
| 2026-05-03 20:45 | 14.95435 | 120.96481 | 15185 ft | 411 kts | 266° |
| 2026-05-03 20:46 | 14.95265 | 120.93514 | 14814 ft | 410 kts | 266° |
| 2026-05-03 20:46 | 14.95094 | 120.90537 | 14436 ft | 408 kts | 266° |
| 2026-05-03 20:46 | 14.94927 | 120.87630 | 14053 ft | 405 kts | 266° |
| 2026-05-03 20:46 | 14.94760 | 120.84713 | 13683 ft | 403 kts | 266° |
| 2026-05-03 20:47 | 14.94594 | 120.81816 | 13322 ft | 400 kts | 266° |
| 2026-05-03 20:47 | 14.94429 | 120.78956 | 12960 ft | 399 kts | 266° |
| 2026-05-03 20:47 | 14.94263 | 120.76072 | 12589 ft | 395 kts | 266° |
| 2026-05-03 20:47 | 14.94099 | 120.73225 | 12242 ft | 395 kts | 267° |
| 2026-05-03 20:48 | 14.93866 | 120.70373 | 11877 ft | 395 kts | 261° |
| 2026-05-03 20:48 | 14.93185 | 120.67645 | 11536 ft | 392 kts | 249° |
| 2026-05-03 20:48 | 14.91981 | 120.65061 | 11162 ft | 389 kts | 238° |
| 2026-05-03 20:48 | 14.90350 | 120.62833 | 10828 ft | 386 kts | 226° |
| 2026-05-03 20:49 | 14.88320 | 120.60963 | 10482 ft | 384 kts | 215° |
| 2026-05-03 20:49 | 14.86025 | 120.59561 | 10161 ft | 381 kts | 203° |
| 2026-05-03 20:49 | 14.83516 | 120.58638 | 9837 ft | 378 kts | 192° |
| 2026-05-03 20:49 | 14.80924 | 120.58229 | 9523 ft | 373 kts | 181° |
| 2026-05-03 20:50 | 14.78330 | 120.58327 | 9202 ft | 370 kts | 170° |
| 2026-05-03 20:50 | 14.75785 | 120.58924 | 8888 ft | 366 kts | 159° |
| 2026-05-03 20:50 | 14.73436 | 120.59979 | 8596 ft | 362 kts | 148° |
| 2026-05-03 20:50 | 14.71363 | 120.61372 | 8591 ft | 343 kts | 142° |
| 2026-05-03 20:51 | 14.69468 | 120.62765 | 8641 ft | 324 kts | 142° |
| 2026-05-03 20:51 | 14.67660 | 120.64098 | 8646 ft | 308 kts | 142° |
| 2026-05-03 20:51 | 14.65954 | 120.65359 | 8644 ft | 293 kts | 142° |
| 2026-05-03 20:51 | 14.64307 | 120.66576 | 8643 ft | 280 kts | 141° |
| 2026-05-03 20:52 | 14.62738 | 120.67739 | 8650 ft | 276 kts | 141° |
| 2026-05-03 20:52 | 14.61105 | 120.68875 | 8653 ft | 277 kts | 147° |
| 2026-05-03 20:52 | 14.59362 | 120.69769 | 8643 ft | 278 kts | 155° |
| 2026-05-03 20:52 | 14.57510 | 120.70402 | 8639 ft | 280 kts | 163° |
| 2026-05-03 20:53 | 14.55587 | 120.70760 | 8642 ft | 283 kts | 171° |
| 2026-05-03 20:53 | 14.53558 | 120.70833 | 8644 ft | 286 kts | 180° |
| 2026-05-03 20:53 | 14.51567 | 120.70602 | 8642 ft | 287 kts | 188° |
| 2026-05-03 20:53 | 14.49577 | 120.70060 | 8652 ft | 288 kts | 198° |
| 2026-05-03 20:54 | 14.47741 | 120.69247 | 8652 ft | 291 kts | 206° |
| 2026-05-03 20:54 | 14.44418 | 120.66763 | 8654 ft | 294 kts | 224° |
| 2026-05-03 20:54 | 14.43037 | 120.65133 | 8651 ft | 293 kts | 233° |
| 2026-05-03 20:55 | 14.41940 | 120.63354 | 8655 ft | 294 kts | 244° |
| 2026-05-03 20:55 | 14.41433 | 120.61331 | 8646 ft | 291 kts | 272° |
| 2026-05-03 20:55 | 14.41724 | 120.59255 | 8661 ft | 290 kts | 281° |
| 2026-05-03 20:55 | 14.41661 | 120.57173 | 8656 ft | 293 kts | 254° |
| 2026-05-03 20:56 | 14.40827 | 120.55279 | 8672 ft | 293 kts | 240° |
| 2026-05-03 20:56 | 14.39784 | 120.53461 | 8674 ft | 294 kts | 239° |
| 2026-05-03 20:56 | 14.38738 | 120.51637 | 8671 ft | 293 kts | 239° |
| 2026-05-03 20:56 | 14.37702 | 120.49799 | 8672 ft | 294 kts | 240° |
| 2026-05-03 20:57 | 14.36683 | 120.47979 | 8664 ft | 292 kts | 240° |
| 2026-05-03 20:57 | 14.35459 | 120.46231 | 8639 ft | 292 kts | 220° |
| 2026-05-03 20:57 | 14.33696 | 120.45212 | 8632 ft | 288 kts | 192° |
| 2026-05-03 20:57 | 14.31705 | 120.45103 | 8631 ft | 282 kts | 166° |
| 2026-05-03 20:58 | 14.29847 | 120.45779 | 8636 ft | 279 kts | 152° |
| 2026-05-03 20:58 | 14.28093 | 120.46715 | 8631 ft | 278 kts | 148° |
| 2026-05-03 20:58 | 14.26385 | 120.47701 | 8632 ft | 278 kts | 147° |
| 2026-05-03 20:58 | 14.24811 | 120.48882 | 8618 ft | 273 kts | 128° |
| 2026-05-03 20:59 | 14.23914 | 120.50573 | 8619 ft | 267 kts | 102° |
| 2026-05-03 20:59 | 14.23850 | 120.52474 | 8622 ft | 266 kts | 77° |
| 2026-05-03 20:59 | 14.24466 | 120.54281 | 8454 ft | 269 kts | 65° |
| 2026-05-03 20:59 | 14.25322 | 120.56000 | 8173 ft | 266 kts | 62° |
| 2026-05-03 21:00 | 14.26236 | 120.57674 | 7962 ft | 261 kts | 60° |
| 2026-05-03 21:00 | 14.26849 | 120.58777 | 7840 ft | 259 kts | 60° |
| 2026-05-03 21:00 | 14.28046 | 120.60925 | 7596 ft | 254 kts | 60° |
| 2026-05-03 21:00 | 14.28925 | 120.62505 | 7406 ft | 248 kts | 60° |
| 2026-05-03 21:01 | 14.29772 | 120.64027 | 7233 ft | 242 kts | 60° |
| 2026-05-03 21:01 | 14.30602 | 120.65518 | 7067 ft | 235 kts | 60° |
| 2026-05-03 21:01 | 14.31413 | 120.66976 | 6902 ft | 229 kts | 60° |
| 2026-05-03 21:01 | 14.32193 | 120.68379 | 6742 ft | 221 kts | 60° |
| 2026-05-03 21:02 | 14.32957 | 120.69752 | 6573 ft | 214 kts | 60° |
| 2026-05-03 21:02 | 14.33709 | 120.71104 | 6280 ft | 214 kts | 60° |
| 2026-05-03 21:02 | 14.34455 | 120.72443 | 5975 ft | 214 kts | 60° |
| 2026-05-03 21:02 | 14.35200 | 120.73782 | 5679 ft | 213 kts | 60° |
| 2026-05-03 21:03 | 14.35939 | 120.75112 | 5393 ft | 213 kts | 60° |
| 2026-05-03 21:03 | 14.36677 | 120.76438 | 5094 ft | 213 kts | 60° |
| 2026-05-03 21:03 | 14.37408 | 120.77754 | 4817 ft | 207 kts | 60° |
| 2026-05-03 21:03 | 14.38129 | 120.79050 | 4503 ft | 202 kts | 60° |
| 2026-05-03 21:04 | 14.38817 | 120.80289 | 4276 ft | 199 kts | 60° |
| 2026-05-03 21:04 | 14.39502 | 120.81521 | 3990 ft | 195 kts | 60° |
| 2026-05-03 21:04 | 14.40180 | 120.82741 | 3758 ft | 193 kts | 60° |
| 2026-05-03 21:04 | 14.40837 | 120.83923 | 3511 ft | 188 kts | 60° |
| 2026-05-03 21:05 | 14.41479 | 120.85080 | 3237 ft | 179 kts | 60° |
| 2026-05-03 21:05 | 14.42084 | 120.86168 | 3022 ft | 173 kts | 60° |
| 2026-05-03 21:05 | 14.42679 | 120.87240 | 2791 ft | 168 kts | 60° |
| 2026-05-03 21:05 | 14.43256 | 120.88280 | 2569 ft | 164 kts | 60° |
| 2026-05-03 21:06 | 14.43814 | 120.89284 | 2354 ft | 155 kts | 60° |
| 2026-05-03 21:06 | 14.44328 | 120.90272 | 2167 ft | 157 kts | 63° |
| 2026-05-03 21:06 | 14.44845 | 120.91240 | 1963 ft | 153 kts | 60° |
| 2026-05-03 21:06 | 14.45378 | 120.92168 | 1778 ft | 142 kts | 60° |
| 2026-05-03 21:07 | 14.45865 | 120.93035 | 1608 ft | 137 kts | 60° |
| 2026-05-03 21:07 | 14.46340 | 120.93881 | 1432 ft | 136 kts | 60° |
| 2026-05-03 21:07 | 14.46815 | 120.94730 | 1252 ft | 137 kts | 62° |
| 2026-05-03 21:07 | 14.47300 | 120.95595 | 1072 ft | 138 kts | 61° |
| 2026-05-03 21:08 | 14.47782 | 120.96455 | 893 ft | 137 kts | 62° |
| 2026-05-03 21:08 | 14.48249 | 120.97292 | 710 ft | 138 kts | 60° |
| 2026-05-03 21:08 | 14.48731 | 120.98161 | 540 ft | 138 kts | 60° |
| 2026-05-03 21:08 | 14.49224 | 120.99009 | 379 ft | 140 kts | 61° |
| 2026-05-03 21:09 | 14.49705 | 120.99867 | 194 ft | 141 kts | 60° |
| 2026-05-03 21:09 | 14.50173 | 121.00688 | 92 ft | 137 kts | 61° |
| 2026-05-03 21:09 | 14.50586 | 121.01444 | 88 ft | 99 kts | 60° |
| 2026-05-03 21:09 | 14.50832 | 121.01897 | 88 ft | 36 kts | 59° |
| 2026-05-03 21:10 | 14.50922 | 121.02052 | 88 ft | 24 kts | 59° |
| 2026-05-03 21:10 | 14.51012 | 121.02182 | 88 ft | 20 kts | 46° |
| 2026-05-03 21:10 | 14.51089 | 121.02254 | 88 ft | 14 kts | 41° |
| 2026-05-03 21:10 | 14.51124 | 121.02285 | 88 ft | 1 kts | 36° |
| 2026-05-03 21:11 | 14.51143 | 121.02296 | 88 ft | 2 kts | 25° |
| 2026-05-03 21:11 | 14.51165 | 121.02303 | 88 ft | 3 kts | 7° |
| 2026-05-03 21:11 | 14.51185 | 121.02296 | 88 ft | 2 kts | 309° |
| 2026-05-03 21:11 | 14.51189 | 121.02276 | 88 ft | 3 kts | 269° |
| 2026-05-03 21:12 | 14.51182 | 121.02248 | 88 ft | 5 kts | 250° |
| 2026-05-03 21:12 | 14.51163 | 121.02209 | 88 ft | 7 kts | 242° |
| 2026-05-03 21:12 | 14.51135 | 121.02157 | 88 ft | 8 kts | 240° |
| 2026-05-03 21:12 | 14.51106 | 121.02106 | 88 ft | 6 kts | 240° |
| 2026-05-03 21:13 | 14.51084 | 121.02065 | 88 ft | 6 kts | 240° |
| 2026-05-03 21:13 | 14.51067 | 121.02029 | 88 ft | 4 kts | 258° |
| 2026-05-03 21:13 | 14.51072 | 121.01995 | 88 ft | 7 kts | 293° |
| 2026-05-03 21:13 | 14.51113 | 121.01949 | 88 ft | 9 kts | 319° |
| 2026-05-03 21:14 | 14.51155 | 121.01901 | 88 ft | 8 kts | 310° |
| 2026-05-03 21:14 | 14.51167 | 121.01888 | 88 ft | 0 kts | 315° |
| 2026-05-03 21:14 | 14.51171 | 121.01884 | 88 ft | 0 kts | 316° |
| 2026-05-03 21:14 | 14.51175 | 121.01881 | 88 ft | 0 kts | 317° |
| 2026-05-03 21:15 | 14.51179 | 121.01877 | 88 ft | 0 kts | 317° |
| 2026-05-03 21:17 | 14.51191 | 121.01865 | 88 ft | 6 kts | 314° |
| 2026-05-03 21:17 | 14.51221 | 121.01833 | 88 ft | 12 kts | 314° |
| 2026-05-03 21:17 | 14.51316 | 121.01736 | 88 ft | 16 kts | 315° |
| 2026-05-03 21:17 | 14.51400 | 121.01648 | 88 ft | 15 kts | 315° |
| 2026-05-03 21:18 | 14.51474 | 121.01572 | 88 ft | 14 kts | 314° |
| 2026-05-03 21:18 | 14.51544 | 121.01498 | 88 ft | 13 kts | 315° |
| 2026-05-03 21:18 | 14.51608 | 121.01434 | 88 ft | 12 kts | 315° |
| 2026-05-03 21:18 | 14.51647 | 121.01393 | 88 ft | 3 kts | 315° |
| 2026-05-03 21:19 | 14.51667 | 121.01372 | 88 ft | 4 kts | 315° |
| 2026-05-03 21:19 | 14.51677 | 121.01366 | 88 ft | 1 kts | 342° |
| 2026-05-03 21:19 | 14.51686 | 121.01366 | 88 ft | 1 kts | 8° |
| 2026-05-03 21:19 | 14.51696 | 121.01370 | 88 ft | 1 kts | 39° |
| 2026-05-03 21:20 | 14.51710 | 121.01383 | 88 ft | 4 kts | 42° |
| 2026-05-03 21:20 | 14.51729 | 121.01402 | 88 ft | 1 kts | 43° |
| 2026-05-03 21:20 | 14.51739 | 121.01411 | 88 ft | 2 kts | 43° |
| 2026-05-03 21:20 | 14.51746 | 121.01418 | 88 ft | 0 kts | 44° |